Time;durP1;ratioP1;P1;durP2;ratioP2;P2;SDS_P1;SDS_P2;PMS_P1;PMS_P2;Temp;Humidity;BMP_temperature;BMP_pressure;BME280_temperature;BME280_humidity;BME280_pressure;Samples;Min_cycle;Max_cycle;Signal;HPM_P1;HPM_P2
2023/07/11 00:01:15;;;;;;;4.53;2.10;;;;;;;20.09;62.28;101518.22;5026369;28;20125;-71
2023/07/11 00:03:42;;;;;;;6.43;2.05;;;;;;;20.06;62.63;101510.34;5025646;28;20418;-72
2023/07/11 00:06:17;;;;;;;5.75;1.88;;;;;;;20.04;62.76;101510.47;5027890;28;20038;-72
2023/07/11 00:08:44;;;;;;;3.35;1.75;;;;;;;19.99;62.51;101515.25;5027437;28;20526;-72
2023/07/11 00:11:15;;;;;;;4.10;1.77;;;;;;;19.97;62.86;101514.47;5025720;28;20038;-72
2023/07/11 00:13:43;;;;;;;6.63;2.17;;;;;;;19.93;62.83;101507.56;5027745;28;20101;-72
2023/07/11 00:16:14;;;;;;;5.53;1.95;;;;;;;19.88;62.92;101497.13;5030467;28;20038;-73
2023/07/11 00:18:42;;;;;;;4.75;2.08;;;;;;;19.86;63.21;101499.91;5026766;28;20470;-73
2023/07/11 00:21:09;;;;;;;3.92;1.77;;;;;;;19.82;63.07;101494.81;5023785;28;20136;-74
2023/07/11 00:23:36;;;;;;;3.92;2.47;;;;;;;19.76;63.34;101496.03;5025705;28;20045;-73
2023/07/11 00:26:04;;;;;;;6.28;2.20;;;;;;;19.72;63.64;101494.47;5025708;28;20042;-73
2023/07/11 00:28:32;;;;;;;4.05;1.98;;;;;;;19.66;63.74;101495.69;5028546;28;20457;-73
2023/07/11 00:31:00;;;;;;;6.20;2.28;;;;;;;19.63;64.33;101500.34;5023927;28;20053;-75
2023/07/11 00:33:29;;;;;;;4.80;2.33;;;;;;;19.58;63.99;101497.09;5025663;28;20049;-74
2023/07/11 00:35:56;;;;;;;4.50;2.47;;;;;;;19.51;64.28;101492.09;5032856;28;20525;-74
2023/07/11 00:38:25;;;;;;;3.85;2.35;;;;;;;19.45;64.71;101484.44;5026375;28;20105;-75
2023/07/11 00:40:52;;;;;;;6.25;2.40;;;;;;;19.40;64.89;101487.38;5026380;28;20053;-75
2023/07/11 00:43:21;;;;;;;5.38;2.50;;;;;;;19.34;65.19;101495.72;5025527;28;20046;-75
2023/07/11 00:46:15;;;;;;;5.60;2.35;;;;;;;19.32;65.29;101491.44;5024314;28;20592;-75
2023/07/11 00:49:03;;;;;;;6.95;2.47;;;;;;;19.24;65.54;101491.84;5028267;28;20058;-75
2023/07/11 00:51:39;;;;;;;4.57;2.58;;;;;;;19.19;65.81;101486.78;5025135;28;20510;-75
2023/07/11 00:54:14;;;;;;;5.35;2.22;;;;;;;19.12;65.94;101492.56;5028475;28;20096;-75
2023/07/11 00:56:46;;;;;;;7.18;2.38;;;;;;;19.07;65.86;101490.16;5031203;28;20046;-75
2023/07/11 00:59:17;;;;;;;3.25;2.00;;;;;;;19.02;65.69;101486.88;5033747;28;20054;-75
2023/07/11 01:01:55;;;;;;;4.43;2.17;;;;;;;19.00;66.13;101486.09;5025501;28;20104;-75
2023/07/11 01:04:23;;;;;;;6.88;2.08;;;;;;;18.96;66.35;101487.22;5015027;28;20332;-75
2023/07/11 01:06:50;;;;;;;4.35;2.00;;;;;;;18.91;66.28;101482.94;5025337;28;20038;-73
2023/07/11 01:09:17;;;;;;;4.72;2.00;;;;;;;18.88;66.52;101485.78;5024702;28;20474;-73
2023/07/11 01:11:58;;;;;;;8.13;2.33;;;;;;;18.85;66.68;101483.31;5023818;28;20049;-73
2023/07/11 01:14:26;;;;;;;5.88;2.20;;;;;;;18.81;66.71;101484.41;5025013;28;20073;-73
2023/07/11 01:16:54;;;;;;;7.53;2.17;;;;;;;18.78;66.63;101484.56;5024878;28;20125;-73
2023/07/11 01:19:24;;;;;;;4.78;2.45;;;;;;;18.75;66.95;101487.44;5025937;28;20096;-73
2023/07/11 01:21:51;;;;;;;5.25;2.40;;;;;;;18.73;66.87;101483.97;5024460;28;20502;-73
2023/07/11 01:24:19;;;;;;;4.07;2.28;;;;;;;18.68;67.03;101478.00;5005905;28;20108;-73
2023/07/11 01:26:46;;;;;;;6.65;2.22;;;;;;;18.65;66.98;101484.38;5016839;28;20497;-73
2023/07/11 01:29:14;;;;;;;5.20;2.20;;;;;;;18.62;67.24;101485.41;5025034;28;20500;-74
2023/07/11 01:31:41;;;;;;;6.35;2.42;;;;;;;18.59;67.19;101479.38;5029027;28;20465;-72
2023/07/11 01:34:08;;;;;;;7.63;2.33;;;;;;;18.57;67.43;101478.59;5024990;28;20046;-72
2023/07/11 01:36:36;;;;;;;5.00;2.45;;;;;;;18.53;67.59;101475.25;5022429;28;20038;-71
2023/07/11 01:39:06;;;;;;;5.40;2.25;;;;;;;18.50;67.29;101478.06;5023117;28;20056;-72
2023/07/11 01:41:34;;;;;;;6.07;2.60;;;;;;;18.45;67.68;101462.28;5026951;28;20046;-72
2023/07/11 01:44:03;;;;;;;5.13;2.55;;;;;;;18.42;68.22;101467.78;5024546;28;20465;-72
2023/07/11 01:46:30;;;;;;;7.93;2.30;;;;;;;18.37;68.16;101461.84;5024341;28;20033;-72
2023/07/11 01:48:58;;;;;;;5.30;2.00;;;;;;;18.34;68.64;101458.47;5023673;28;20052;-72
2023/07/11 01:51:25;;;;;;;4.97;2.40;;;;;;;18.30;68.67;101455.97;5023820;28;20522;-72
2023/07/11 01:53:52;;;;;;;5.63;2.20;;;;;;;18.28;68.88;101454.34;5043007;28;20042;-72
2023/07/11 01:56:20;;;;;;;4.88;1.95;;;;;;;18.24;69.21;101456.31;5023079;28;20481;-72
2023/07/11 01:58:47;;;;;;;6.60;2.15;;;;;;;18.21;69.43;101445.78;5030636;28;20052;-72
2023/07/11 02:01:14;;;;;;;4.95;2.33;;;;;;;18.16;69.52;101447.84;5021977;28;20050;-72
2023/07/11 02:03:41;;;;;;;5.85;2.30;;;;;;;18.10;70.33;101448.16;5023541;28;20058;-72
2023/07/11 02:06:09;;;;;;;4.85;2.15;;;;;;;18.05;70.46;101436.88;5039445;28;20069;-72
2023/07/11 02:08:36;;;;;;;5.85;2.60;;;;;;;17.99;70.67;101436.25;5027105;28;20342;-72
2023/07/11 02:11:04;;;;;;;3.83;2.17;;;;;;;17.93;71.00;101425.00;5037800;28;20050;-72
2023/07/11 02:13:31;;;;;;;4.85;2.47;;;;;;;17.89;71.13;101426.97;5040352;28;20557;-74
2023/07/11 02:15:58;;;;;;;5.63;2.30;;;;;;;17.85;70.68;101428.09;5023062;28;20153;-74
2023/07/11 02:18:25;;;;;;;5.65;2.33;;;;;;;17.79;71.33;101420.38;5029776;28;20076;-74
2023/07/11 02:20:56;;;;;;;9.43;2.80;;;;;;;17.75;71.36;101419.69;5035217;28;20069;-74
2023/07/11 02:23:24;;;;;;;6.97;2.75;;;;;;;17.69;71.87;101420.84;5024636;28;20112;-73
2023/07/11 02:25:54;;;;;;;5.85;2.60;;;;;;;17.66;72.23;101412.16;5011821;28;20118;-73
2023/07/11 02:28:22;;;;;;;5.10;2.40;;;;;;;17.62;72.18;101416.78;5021044;28;20045;-73
2023/07/11 02:30:49;;;;;;;6.80;2.70;;;;;;;17.57;71.86;101410.81;5008490;28;21468;-73
2023/07/11 02:33:16;;;;;;;8.82;2.63;;;;;;;17.54;72.06;101405.66;5021587;28;20042;-73
2023/07/11 02:35:43;;;;;;;5.18;2.50;;;;;;;17.52;72.00;101400.38;5028394;28;21013;-73
2023/07/11 02:38:10;;;;;;;4.38;2.40;;;;;;;17.52;71.95;101407.53;5024748;28;20592;-73
2023/07/11 02:40:37;;;;;;;8.85;2.70;;;;;;;17.48;72.01;101403.28;5029433;28;20045;-73
2023/07/11 02:43:04;;;;;;;5.68;2.35;;;;;;;17.46;72.21;101402.50;5023976;28;20046;-72
2023/07/11 02:45:31;;;;;;;5.53;2.60;;;;;;;17.43;72.13;101403.50;5021839;28;20046;-73
2023/07/11 02:47:59;;;;;;;6.43;2.42;;;;;;;17.39;72.37;101394.81;5024436;28;20068;-73
2023/07/11 02:50:26;;;;;;;6.60;2.72;;;;;;;17.38;73.12;101392.25;5024493;28;20042;-73
2023/07/11 02:52:53;;;;;;;5.40;2.45;;;;;;;17.36;72.54;101389.63;5032062;28;20116;-73
2023/07/11 02:55:20;;;;;;;6.97;2.55;;;;;;;17.34;72.58;101386.22;5034745;28;20042;-73
2023/07/11 02:57:47;;;;;;;5.18;2.60;;;;;;;17.33;72.28;101381.81;5028442;28;20073;-73
2023/07/11 03:00:14;;;;;;;7.10;2.42;;;;;;;17.35;72.76;101387.06;5027455;28;20477;-73
2023/07/11 03:02:42;;;;;;;5.45;2.58;;;;;;;17.30;72.90;101376.63;5042755;28;20116;-73
2023/07/11 03:05:09;;;;;;;9.80;2.90;;;;;;;17.29;72.97;101374.91;5029944;28;20038;-73
2023/07/11 03:07:37;;;;;;;8.10;3.00;;;;;;;17.27;72.53;101370.59;5029442;28;20647;-73
2023/07/11 03:10:04;;;;;;;5.85;2.70;;;;;;;17.26;73.35;101368.88;5029120;28;20038;-73
2023/07/11 03:12:32;;;;;;;6.53;3.00;;;;;;;17.24;73.43;101374.28;5026999;28;20570;-74
2023/07/11 03:14:59;;;;;;;5.88;2.85;;;;;;;17.23;73.43;101362.75;5027643;28;20116;-74
2023/07/11 03:17:31;;;;;;;8.07;3.20;;;;;;;17.23;73.49;101361.91;5026430;28;20042;-74
2023/07/11 03:19:58;;;;;;;12.32;3.15;;;;;;;17.23;73.69;101361.91;5029670;28;20034;-74
2023/07/11 03:22:27;;;;;;;5.85;2.70;;;;;;;17.22;73.74;101357.50;5026619;28;20119;-74
2023/07/11 03:24:54;;;;;;;7.97;2.88;;;;;;;17.21;73.92;101363.78;5028886;28;20045;-74
2023/07/11 03:27:21;;;;;;;8.40;3.00;;;;;;;17.21;73.80;101353.13;5027816;28;20100;-74
2023/07/11 03:29:48;;;;;;;7.35;2.80;;;;;;;17.19;73.99;101355.88;5031574;28;20050;-74
2023/07/11 03:32:16;;;;;;;5.25;2.90;;;;;;;17.20;74.05;101343.38;5027444;28;20561;-73
2023/07/11 03:34:43;;;;;;;7.50;2.85;;;;;;;17.18;74.34;101347.94;5016791;28;20045;-72
2023/07/11 03:37:20;;;;;;;6.82;2.85;;;;;;;17.16;74.54;101349.81;5038706;28;20568;-72
2023/07/11 03:39:47;;;;;;;9.10;3.22;;;;;;;17.14;74.56;101341.91;5027674;28;20046;-72
2023/07/11 03:42:15;;;;;;;7.22;3.08;;;;;;;17.15;74.64;101342.75;5029720;28;20037;-72
2023/07/11 03:44:43;;;;;;;5.88;3.10;;;;;;;17.13;74.79;101341.97;5026748;28;20046;-72
2023/07/11 03:47:10;;;;;;;8.27;3.15;;;;;;;17.12;74.76;101341.09;5027868;28;20132;-72
2023/07/11 03:49:37;;;;;;;9.02;3.17;;;;;;;17.12;74.63;101335.78;5030897;28;20511;-72
2023/07/11 03:52:05;;;;;;;11.07;3.45;;;;;;;17.15;75.05;101340.09;5031377;28;20113;-71
2023/07/11 03:54:32;;;;;;;5.70;2.92;;;;;;;17.19;75.00;101344.31;5029938;28;20038;-72
2023/07/11 03:57:00;;;;;;;6.47;2.97;;;;;;;17.19;74.73;101339.88;5030585;28;20068;-72
2023/07/11 03:59:27;;;;;;;6.38;3.53;;;;;;;17.21;75.09;101337.13;5027080;28;20566;-72
2023/07/11 04:01:54;;;;;;;9.10;3.10;;;;;;;17.23;75.80;101338.75;5025793;28;20371;-73
2023/07/11 04:04:21;;;;;;;8.73;3.25;;;;;;;17.32;74.95;101341.91;5042353;28;20391;-72
2023/07/11 04:06:48;;;;;;;5.72;2.85;;;;;;;17.41;74.59;101335.25;5032661;28;20042;-73
2023/07/11 04:09:15;;;;;;;7.72;3.00;;;;;;;17.47;74.43;101327.81;5025653;28;20552;-71
2023/07/11 04:11:42;;;;;;;5.22;2.90;;;;;;;17.51;74.76;101331.16;5037387;28;20065;-72
2023/07/11 04:14:10;;;;;;;7.80;2.97;;;;;;;17.57;74.72;101333.50;5033606;28;20050;-72
2023/07/11 04:16:38;;;;;;;8.05;2.88;;;;;;;17.59;74.28;101325.44;5026265;28;20054;-72
2023/07/11 04:19:05;;;;;;;6.80;2.80;;;;;;;17.65;74.60;101325.97;5029101;28;20042;-72
2023/07/11 04:21:32;;;;;;;5.35;2.70;;;;;;;17.73;75.14;101322.06;5032601;28;20077;-74
2023/07/11 04:23:59;;;;;;;5.72;2.97;;;;;;;17.89;74.44;101325.63;5025204;28;20116;-74
2023/07/11 04:26:27;;;;;;;8.98;3.00;;;;;;;17.96;74.40;101324.38;5027780;28;20050;-74
2023/07/11 04:28:55;;;;;;;5.28;2.50;;;;;;;18.06;74.17;101330.06;5023515;28;20626;-73
2023/07/11 04:31:22;;;;;;;9.90;2.72;;;;;;;18.16;74.67;101315.28;5017274;28;20045;-73
2023/07/11 04:33:49;;;;;;;6.95;2.58;;;;;;;18.28;74.14;101319.09;5018663;28;20168;-72
2023/07/11 04:36:16;;;;;;;6.55;2.47;;;;;;;18.41;73.68;101316.63;5020455;28;20049;-76
2023/07/11 04:38:44;;;;;;;7.78;2.75;;;;;;;18.53;73.39;101312.38;5017003;28;20720;-75
2023/07/11 04:41:12;;;;;;;10.48;2.92;;;;;;;18.64;73.11;101317.09;5020386;28;20042;-77
2023/07/11 04:43:39;;;;;;;7.00;2.70;;;;;;;18.90;72.53;101307.59;5019654;28;20070;-77
2023/07/11 04:46:08;;;;;;;8.80;2.90;;;;;;;19.54;71.06;101309.22;5020822;28;20109;-79
2023/07/11 04:48:36;;;;;;;7.32;2.55;;;;;;;20.09;68.58;101305.00;5021945;28;20129;-77
2023/07/11 04:51:07;;;;;;;6.43;3.00;;;;;;;20.11;68.21;101299.53;5020104;28;20050;-77
2023/07/11 04:53:35;;;;;;;6.53;2.83;;;;;;;20.36;67.57;101295.28;5025545;28;20045;-78
2023/07/11 04:56:07;;;;;;;4.80;2.40;;;;;;;21.57;64.43;101286.28;5027439;28;20052;-78
2023/07/11 04:58:36;;;;;;;7.22;2.60;;;;;;;22.73;60.35;101290.59;5028946;28;20052;-78
2023/07/11 05:01:13;;;;;;;6.10;2.75;;;;;;;22.23;61.13;101287.94;5029413;28;20038;-80
2023/07/11 05:03:41;;;;;;;6.00;2.40;;;;;;;21.72;61.58;101280.84;5027396;28;20038;-78
2023/07/11 05:06:09;;;;;;;6.28;2.47;;;;;;;21.32;63.10;101283.59;5042944;28;20610;-78
2023/07/11 05:08:36;;;;;;;5.60;2.80;;;;;;;21.15;63.75;101279.41;5024329;28;20128;-78
2023/07/11 05:11:07;;;;;;;9.93;2.95;;;;;;;21.03;63.69;101276.59;5025093;28;20043;-77
2023/07/11 05:13:34;;;;;;;10.52;2.75;;;;;;;20.98;64.47;101276.06;5021376;28;20045;-78
2023/07/11 05:16:10;;;;;;;7.85;2.60;;;;;;;21.00;64.28;101278.63;5019676;28;20046;-78
2023/07/11 05:18:40;;;;;;;7.68;2.90;;;;;;;21.22;64.15;101278.00;5018601;28;20049;-78
2023/07/11 05:21:14;;;;;;;5.70;2.75;;;;;;;21.62;63.30;101275.28;5017489;28;20050;-77
2023/07/11 05:23:42;;;;;;;3.80;2.00;;;;;;;23.03;60.60;101262.38;5022317;28;20502;-80
2023/07/11 05:26:10;;;;;;;5.75;2.40;;;;;;;25.27;55.06;101253.38;5024467;28;20042;-78
2023/07/11 05:28:37;;;;;;;4.40;2.15;;;;;;;26.38;51.35;101258.09;5017357;28;20087;-78
2023/07/11 05:31:07;;;;;;;4.40;2.47;;;;;;;26.85;49.49;101258.28;5028956;28;20610;-78
2023/07/11 05:33:35;;;;;;;6.00;2.20;;;;;;;28.47;45.93;101249.16;5035086;28;20065;-80
2023/07/11 05:38:54;;;;;;;7.28;2.20;;;;;;;31.43;39.43;101245.91;5031525;28;20030;-79
2023/07/11 05:41:21;;;;;;;7.75;2.50;;;;;;;32.55;37.28;101237.69;5033514;28;20182;-80
2023/07/11 05:43:48;;;;;;;5.28;2.53;;;;;;;33.45;35.48;101241.50;5030847;28;20214;-79
2023/07/11 05:46:16;;;;;;;4.85;2.10;;;;;;;34.18;33.90;101240.72;5032339;28;20101;-81
2023/07/11 05:48:43;;;;;;;6.53;1.98;;;;;;;34.83;32.72;101246.22;5028895;28;20080;-79
2023/07/11 05:51:17;;;;;;;7.80;1.95;;;;;;;35.41;31.56;101226.84;5029962;28;20053;-80
2023/07/11 05:53:45;;;;;;;5.65;2.33;;;;;;;35.95;29.94;101231.75;5044084;28;20053;-79
2023/07/11 05:56:14;;;;;;;6.68;4.03;;;;;;;36.32;29.35;101230.38;5034423;28;20592;-80
2023/07/11 05:58:44;;;;;;;6.40;2.97;;;;;;;36.57;28.38;101224.28;5035019;28;20861;-80
2023/07/11 06:01:15;;;;;;;8.43;2.33;;;;;;;36.76;28.46;101230.84;5036260;28;20967;-79
2023/07/11 06:03:45;;;;;;;6.25;2.10;;;;;;;37.04;27.88;101227.06;5040583;28;20124;-80
2023/07/11 06:06:18;;;;;;;5.53;2.13;;;;;;;37.27;27.47;101223.81;5030863;28;20046;-79
2023/07/11 06:08:46;;;;;;;9.48;2.03;;;;;;;37.41;26.90;101219.16;5046621;28;20038;-79
2023/07/11 06:11:13;;;;;;;3.80;1.83;;;;;;;37.56;26.85;101218.06;5039263;28;20241;-79
2023/07/11 06:13:40;;;;;;;7.82;2.20;;;;;;;37.70;26.03;101211.41;5046714;28;20042;-80
2023/07/11 06:16:14;;;;;;;4.07;1.75;;;;;;;37.75;25.88;101210.75;5044768;28;20049;-78
2023/07/11 06:18:42;;;;;;;3.83;1.85;;;;;;;37.47;26.06;101211.94;5027323;28;20568;-79
2023/07/11 06:21:11;;;;;;;7.50;2.10;;;;;;;36.42;27.06;101204.47;5037943;28;20045;-78
2023/07/11 06:23:38;;;;;;;7.57;2.25;;;;;;;34.00;30.10;101217.41;5038731;28;20905;-79
2023/07/11 06:26:09;;;;;;;10.02;2.30;;;;;;;31.67;33.44;101219.56;5030878;28;20042;-78
2023/07/11 06:28:37;;;;;;;5.25;2.30;;;;;;;29.82;35.97;101211.75;5012488;28;20041;-78
2023/07/11 06:31:06;;;;;;;5.65;2.15;;;;;;;28.39;38.70;101211.97;5043774;28;20041;-78
2023/07/11 06:33:35;;;;;;;11.90;2.50;;;;;;;27.38;40.98;101205.47;5034855;28;20545;-79
2023/07/11 06:36:05;;;;;;;8.77;2.40;;;;;;;26.72;43.13;101220.69;5044801;28;20045;-79
2023/07/11 06:38:32;;;;;;;13.98;2.70;;;;;;;26.18;44.56;101204.88;5027968;28;20049;-79
2023/07/11 06:40:59;;;;;;;5.45;2.28;;;;;;;25.73;45.51;101211.56;5026623;28;20547;-79
2023/07/11 06:43:28;;;;;;;4.65;2.08;;;;;;;25.40;46.70;101205.47;5034906;28;20037;-77
2023/07/11 06:45:59;;;;;;;5.00;2.28;;;;;;;25.10;47.71;101201.72;5032170;28;20544;-76
2023/07/11 06:48:30;;;;;;;6.88;2.35;;;;;;;24.91;48.43;101196.22;5026521;28;20524;-77
2023/07/11 06:51:03;;;;;;;6.13;2.13;;;;;;;24.76;49.35;101191.16;5025579;28;20183;-76
2023/07/11 06:53:34;;;;;;;8.43;2.42;;;;;;;24.70;49.69;101196.22;5036801;28;20034;-77
2023/07/11 06:56:03;;;;;;;6.05;2.17;;;;;;;24.61;50.26;101195.13;5028717;28;21014;-76
2023/07/11 06:58:30;;;;;;;9.88;2.38;;;;;;;24.59;50.86;101191.69;5029295;28;20066;-76
2023/07/11 07:01:02;;;;;;;4.97;2.22;;;;;;;24.57;50.69;101189.13;5031643;28;20042;-76
2023/07/11 07:03:31;;;;;;;7.85;1.98;;;;;;;24.56;51.38;101191.97;5035878;28;20479;-76
2023/07/11 07:06:09;;;;;;;5.25;1.95;;;;;;;24.57;51.05;101182.91;5031361;28;20038;-76
2023/07/11 07:08:37;;;;;;;7.70;2.30;;;;;;;24.56;51.12;101184.72;5031142;28;20034;-76
2023/07/11 07:11:05;;;;;;;4.38;2.15;;;;;;;24.57;51.19;101185.59;5036991;28;20040;-76
2023/07/11 07:13:32;;;;;;;9.85;2.30;;;;;;;24.63;50.93;101182.38;5035793;28;20540;-76
2023/07/11 07:16:02;;;;;;;6.30;2.13;;;;;;;24.74;51.08;101187.75;5032009;28;20042;-76
2023/07/11 07:18:33;;;;;;;9.80;1.92;;;;;;;24.81;51.31;101180.84;5041659;28;20132;-75
2023/07/11 07:21:04;;;;;;;5.07;1.92;;;;;;;24.93;51.07;101186.16;5039503;28;20100;-76
2023/07/11 07:23:35;;;;;;;6.85;2.10;;;;;;;25.01;51.07;101182.81;5036460;28;20046;-76
2023/07/11 07:26:08;;;;;;;6.28;2.10;;;;;;;25.10;50.59;101179.31;5030063;28;20128;-76
2023/07/11 07:28:35;;;;;;;7.20;2.20;;;;;;;25.17;50.26;101180.47;5041238;28;20046;-77
2023/07/11 07:31:08;;;;;;;6.18;2.10;;;;;;;25.25;50.63;101180.66;5030193;28;20041;-75
2023/07/11 07:33:36;;;;;;;5.47;2.03;;;;;;;25.34;50.47;101186.22;5037019;28;20045;-76
2023/07/11 07:36:06;;;;;;;7.55;2.05;;;;;;;25.39;49.73;101182.13;5030345;28;20577;-76
2023/07/11 07:38:34;;;;;;;4.85;2.10;;;;;;;25.46;49.21;101193.28;5030368;28;20049;-77
2023/07/11 07:41:06;;;;;;;7.15;2.38;;;;;;;25.52;49.10;101184.66;5042031;28;20069;-77
2023/07/11 07:43:36;;;;;;;6.70;2.10;;;;;;;25.57;49.45;101182.38;5039089;28;20041;-76
2023/07/11 07:46:04;;;;;;;9.57;2.42;;;;;;;25.66;50.09;101172.63;5033337;28;20046;-76
2023/07/11 07:48:32;;;;;;;7.78;2.38;;;;;;;25.75;49.13;101181.72;5038295;28;20682;-76
2023/07/11 07:51:12;;;;;;;8.27;2.40;;;;;;;25.80;48.84;101167.81;5029624;28;20050;-76
2023/07/11 07:53:39;;;;;;;8.13;2.25;;;;;;;25.84;47.68;101169.25;5028876;28;20069;-76
2023/07/11 07:56:09;;;;;;;7.53;2.00;;;;;;;25.90;47.25;101160.59;5027330;28;20046;-76
2023/07/11 07:58:37;;;;;;;11.75;2.65;;;;;;;25.95;47.67;101161.03;5036703;28;20034;-75
2023/07/11 08:01:12;;;;;;;5.55;2.20;;;;;;;26.07;47.40;101169.03;5033454;28;20041;-76
2023/07/11 08:03:40;;;;;;;19.73;3.33;;;;;;;26.16;47.22;101163.63;5027361;28;20089;-75
2023/07/11 08:06:09;;;;;;;8.23;2.47;;;;;;;26.22;47.01;101156.81;5029941;28;20124;-75
2023/07/11 08:08:39;;;;;;;10.73;2.70;;;;;;;26.23;47.40;101163.94;5016247;28;20054;-75
2023/07/11 08:11:07;;;;;;;5.60;2.00;;;;;;;26.35;46.25;101153.88;5040967;28;20125;-76
2023/07/11 08:13:36;;;;;;;8.75;1.90;;;;;;;26.39;45.08;101151.72;5030637;28;20042;-75
2023/07/11 08:16:25;;;;;;;12.00;2.15;;;;;;;26.45;45.88;101153.84;5033800;28;20050;-76
2023/07/11 08:19:06;;;;;;;10.85;2.08;;;;;;;26.57;45.07;101152.69;5040950;28;20096;-75
2023/07/11 08:21:36;;;;;;;9.43;2.00;;;;;;;26.65;44.48;101150.13;5028865;28;20290;-76
2023/07/11 08:24:06;;;;;;;9.10;2.20;;;;;;;26.77;44.43;101147.25;5028749;28;20053;-75
2023/07/11 08:26:33;;;;;;;8.57;1.77;;;;;;;26.93;44.22;101143.97;5043747;28;20050;-75
2023/07/11 08:29:00;;;;;;;3.33;1.83;;;;;;;27.00;43.76;101146.97;5027453;28;20585;-75
2023/07/11 08:31:42;;;;;;;14.30;2.55;;;;;;;26.96;43.98;101143.69;5027396;28;20227;-75
2023/07/11 08:34:09;;;;;;;6.75;2.30;;;;;;;27.01;43.91;101143.25;5048584;28;20075;-75
2023/07/11 08:36:39;;;;;;;7.35;2.00;;;;;;;27.15;43.80;101136.50;5022847;28;20502;-76
2023/07/11 08:39:07;;;;;;;5.35;1.90;;;;;;;27.22;44.17;101137.63;5017463;28;20038;-75
2023/07/11 08:41:50;;;;;;;3.25;1.63;;;;;;;27.38;43.46;101137.81;5027281;28;20054;-76
2023/07/11 08:44:31;;;;;;;8.67;1.60;;;;;;;27.52;43.59;101133.78;5029677;28;20486;-76
2023/07/11 08:47:21;;;;;;;4.78;1.70;;;;;;;27.69;42.91;101121.28;5028820;28;20045;-75
2023/07/11 08:49:57;;;;;;;9.93;1.98;;;;;;;27.80;42.72;101130.19;5025372;28;20046;-76
2023/07/11 08:52:29;;;;;;;4.90;1.90;;;;;;;27.87;41.46;101129.44;5026215;28;20054;-77
2023/07/11 08:55:12;;;;;;;6.70;2.00;;;;;;;27.98;40.55;101131.06;5026184;28;20466;-74
2023/07/11 08:57:48;;;;;;;6.97;1.50;;;;;;;27.99;41.01;101126.53;5026873;28;20041;-75
2023/07/11 09:00:18;;;;;;;14.85;2.30;;;;;;;28.01;41.75;101119.09;5024348;28;20056;-76
2023/07/11 09:03:06;;;;;;;7.43;1.90;;;;;;;28.18;41.09;101118.25;5028078;28;20041;-76
2023/07/11 09:05:41;;;;;;;4.03;1.70;;;;;;;28.33;40.50;101110.44;5027172;28;20145;-76
2023/07/11 09:08:17;;;;;;;8.63;2.10;;;;;;;28.47;39.14;101114.44;5026263;28;20534;-77
2023/07/11 09:11:12;;;;;;;14.63;1.77;;;;;;;28.54;37.67;101114.66;5027770;28;20041;-76
2023/07/11 09:13:59;;;;;;;12.80;2.13;;;;;;;28.45;38.81;101097.47;5026913;28;20573;-76
2023/07/11 09:16:37;;;;;;;6.10;1.80;;;;;;;28.52;39.21;101108.53;5028017;28;20488;-77
2023/07/11 09:19:33;;;;;;;6.40;1.70;;;;;;;28.78;38.16;101096.88;5028606;28;20045;-77
2023/07/11 09:22:42;;;;;;;5.53;1.70;;;;;;;28.86;38.37;101098.78;5027627;28;20132;-77
2023/07/11 09:25:17;;;;;;;5.82;1.73;;;;;;;29.03;38.32;101100.59;5027016;28;20038;-77
2023/07/11 09:28:26;;;;;;;5.60;1.70;;;;;;;29.34;38.21;101088.34;5026131;28;20590;-76
2023/07/11 09:31:00;;;;;;;5.88;1.35;;;;;;;29.51;37.51;101091.97;5030869;28;20069;-77
2023/07/11 09:33:34;;;;;;;5.15;1.65;;;;;;;29.65;37.76;101094.06;5021612;28;20042;-75
2023/07/11 09:36:20;;;;;;;7.63;1.90;;;;;;;29.64;37.55;101091.50;5017546;28;20042;-75
2023/07/11 09:39:31;;;;;;;11.35;2.28;;;;;;;29.59;36.68;101090.13;5013536;28;20042;-75
2023/07/11 09:42:29;;;;;;;8.77;1.75;;;;;;;29.61;36.41;101092.69;5013310;28;20050;-75
2023/07/11 09:44:59;;;;;;;9.35;1.85;;;;;;;29.78;37.10;101084.56;5024861;28;20184;-75
2023/07/11 09:47:30;;;;;;;7.28;1.77;;;;;;;29.93;36.28;101088.34;5026771;28;20054;-75
2023/07/11 09:50:05;;;;;;;3.58;1.33;;;;;;;30.00;34.61;101091.25;5019754;28;20575;-74
2023/07/11 09:52:34;;;;;;;8.77;1.70;;;;;;;30.10;35.52;101088.34;5038055;28;20056;-75
2023/07/11 09:55:01;;;;;;;5.32;1.70;;;;;;;30.03;35.60;101083.59;5036927;28;20048;-75
2023/07/11 09:57:44;;;;;;;10.25;1.98;;;;;;;30.24;35.51;101084.09;5046032;28;20156;-76
2023/07/11 10:00:12;;;;;;;7.00;1.65;;;;;;;30.35;35.05;101081.91;5026138;28;20045;-76
2023/07/11 10:02:50;;;;;;;4.72;1.35;;;;;;;30.39;34.63;101081.53;5022606;28;20069;-77
2023/07/11 10:05:22;;;;;;;7.45;1.40;;;;;;;30.31;35.04;101085.16;5024890;28;20389;-76
2023/07/11 10:08:02;;;;;;;8.00;1.70;;;;;;;30.19;34.61;101071.03;5025573;28;20073;-76
2023/07/11 10:10:29;;;;;;;6.47;1.73;;;;;;;30.23;35.14;101069.69;5026245;28;20045;-77
2023/07/11 10:13:10;;;;;;;8.55;1.40;;;;;;;30.21;34.38;101071.72;5025236;28;20085;-76
2023/07/11 10:15:59;;;;;;;18.08;2.25;;;;;;;30.31;33.86;101063.41;5025810;28;20451;-75
2023/07/11 10:18:30;;;;;;;11.48;1.85;;;;;;;30.45;33.29;101057.25;5026902;28;20495;-76
2023/07/11 10:21:15;;;;;;;7.05;1.73;;;;;;;30.54;33.83;101069.00;5026684;28;20180;-76
2023/07/11 10:23:50;;;;;;;6.30;1.65;;;;;;;30.63;32.85;101065.22;5026579;28;20159;-78
2023/07/11 10:26:24;;;;;;;3.60;1.30;;;;;;;30.64;32.61;101058.78;5026712;28;20109;-76
2023/07/11 10:29:21;;;;;;;8.60;1.67;;;;;;;30.61;32.62;101059.09;5024624;28;20112;-78
2023/07/11 10:31:58;;;;;;;8.10;1.58;;;;;;;30.51;33.58;101061.13;5021651;28;20129;-78
2023/07/11 10:34:47;;;;;;;11.13;2.00;;;;;;;30.56;33.66;101050.63;5025752;28;20045;-77
2023/07/11 10:37:30;;;;;;;8.45;1.77;;;;;;;30.67;33.09;101058.44;5026293;28;20046;-77
2023/07/11 10:40:12;;;;;;;3.90;1.50;;;;;;;30.71;33.58;101052.63;5024663;28;20544;-76
2023/07/11 10:42:50;;;;;;;7.70;1.67;;;;;;;30.54;33.31;101047.22;5026507;28;20050;-76
2023/07/11 10:45:26;;;;;;;10.27;1.70;;;;;;;30.51;32.26;101047.53;5023814;28;20081;-76
2023/07/11 10:48:01;;;;;;;9.63;1.90;;;;;;;30.51;32.83;101042.09;5025895;28;20045;-76
2023/07/11 10:50:44;;;;;;;7.15;1.63;;;;;;;30.63;33.73;101043.47;5026013;28;20073;-76
2023/07/11 10:53:31;;;;;;;5.82;1.55;;;;;;;30.70;33.09;101027.31;5024585;28;20086;-76
2023/07/11 10:56:16;;;;;;;7.28;1.70;;;;;;;30.83;33.28;101034.91;5026299;28;20499;-76
2023/07/11 10:58:46;;;;;;;12.57;2.47;;;;;;;30.98;31.63;101033.13;5024560;28;20569;-76
2023/07/11 11:01:47;;;;;;;7.82;2.00;;;;;;;31.18;31.00;101031.88;5023473;28;20533;-77
2023/07/11 11:04:42;;;;;;;6.72;1.80;;;;;;;31.26;30.54;101021.81;5024448;28;20474;-77
2023/07/11 11:07:37;;;;;;;5.45;1.80;;;;;;;31.13;31.22;101019.66;5025033;28;20058;-77
2023/07/11 11:10:39;;;;;;;3.53;1.67;;;;;;;31.01;31.32;101018.34;5024196;28;20034;-77
2023/07/11 11:13:15;;;;;;;5.97;1.70;;;;;;;31.03;31.69;101029.03;5025516;28;20041;-77
2023/07/11 11:16:07;;;;;;;7.03;1.98;;;;;;;31.10;31.01;101025.44;5021976;28;20050;-76
2023/07/11 11:19:05;;;;;;;5.22;1.63;;;;;;;31.14;31.58;101024.06;5022845;28;20057;-77
2023/07/11 11:21:44;;;;;;;5.38;1.58;;;;;;;31.15;31.85;101005.88;5029039;28;20112;-76
2023/07/11 11:24:48;;;;;;;7.32;1.75;;;;;;;31.31;32.70;101015.81;5030010;28;20042;-76
2023/07/11 11:27:39;;;;;;;13.55;2.40;;;;;;;31.38;31.69;101014.06;5027621;28;20065;-76
2023/07/11 11:30:34;;;;;;;7.47;1.77;;;;;;;31.32;31.23;101005.78;5026219;28;20598;-76
2023/07/11 11:33:19;;;;;;;6.47;1.90;;;;;;;31.18;32.10;101010.13;5028334;28;20050;-75
2023/07/11 11:35:59;;;;;;;10.98;2.33;;;;;;;31.24;32.71;100999.34;5028043;28;20038;-76
2023/07/11 11:39:06;;;;;;;15.43;2.40;;;;;;;31.32;32.90;100997.59;5014610;28;20463;-76
2023/07/11 11:41:42;;;;;;;6.00;1.90;;;;;;;31.45;32.67;101001.44;5029479;28;20038;-77
2023/07/11 11:44:21;;;;;;;9.05;2.05;;;;;;;31.56;32.14;100996.59;5008750;28;20047;-77
2023/07/11 11:46:53;;;;;;;9.45;2.10;;;;;;;31.64;32.17;100993.81;5026149;28;20791;-74
2023/07/11 11:49:26;;;;;;;9.05;1.85;;;;;;;31.62;32.43;100987.72;5030091;28;20037;-75
2023/07/11 11:51:56;;;;;;;6.07;1.60;;;;;;;31.69;32.59;100985.97;5028900;28;20569;-76